Lilly, Pennsylvania
Current Conditions -  °F | °C
As of 4:54 AM on Friday 31 Oct 2014 (Local Time) from KJST Reporting Station
Overcast Overcast  
Wind Chill: 41°   Ceiling: 3600
Heat Index: 41°   Visibility: 10mi
Dew Point: 35°   Wind: 0mph
Humidity: 79%   Direction: NA
Pressure: 29.95"   Gusts: NA
Location:  40.43°N, 78.62°W
Report Text: KJST 310854Z AUTO 00000KT 10SM OVC036 05/02 A2995 RMK AO2 SLP156 T00500017 56011
Loading
Personal Weather Stations






























Interactive Weather Map
Tropical Storm Tracking
New forecast layout! Learn more

10-Day Weather Forecast

Advertisements
Track Severe Weather on mobile